Time;durP1;ratioP1;P1;durP2;ratioP2;P2;SDS_P1;SDS_P2;PMS_P1;PMS_P2;Temp;Humidity;BMP_temperature;BMP_pressure;BME280_temperature;BME280_humidity;BME280_pressure;Samples;Min_cycle;Max_cycle;Signal;HPM_P1;HPM_P2
2023/11/28 00:00:23;;;;;;;;;;;;;;;;;;4972091;28;19932;-67
2023/11/28 00:02:49;;;;;;;;;;;;;;;;;;4971335;28;19925;-68
2023/11/28 00:05:16;;;;;;;;;;;;;;;;;;4957092;28;19929;-68
2023/11/28 00:07:42;;;;;;;;;;;;;;;;;;4971638;28;19922;-68
2023/11/28 00:10:08;;;;;;;;;;;;;;;;;;4972825;28;20478;-68
2023/11/28 00:12:34;;;;;;;;;;;;;;;;;;4972326;28;19925;-69
2023/11/28 00:14:59;;;;;;;;;;;;;;;;;;4973462;28;19921;-69
2023/11/28 00:17:24;;;;;;;;;;;;;;;;;;4951087;28;19941;-68
2023/11/28 00:19:50;;;;;;;;;;;;;;;;;;4955895;28;19928;-69
2023/11/28 00:22:15;;;;;;;;;;;;;;;;;;4954248;28;19921;-69
2023/11/28 00:24:40;;;;;;;;;;;;;;;;;;4952010;28;19939;-70
2023/11/28 00:27:06;;;;;;;;;;;;;;;;;;4972758;28;19917;-67
2023/11/28 00:29:31;;;;;;;;;;;;;;;;;;4973007;28;19921;-67
2023/11/28 00:31:57;;;;;;;;;;;;;;;;;;4969645;28;19922;-69
2023/11/28 00:34:24;;;;;;;;;;;;;;;;;;4969043;28;19925;-69
2023/11/28 00:36:51;;;;;;;;;;;;;;;;;;4972809;28;20350;-67
2023/11/28 00:39:17;;;;;;;;;;;;;;;;;;4971849;28;20412;-68
2023/11/28 00:41:42;;;;;;;;;;;;;;;;;;4971081;28;19922;-68
2023/11/28 00:44:08;;;;;;;;;;;;;;;;;;4955333;28;19965;-69
2023/11/28 00:46:35;;;;;;;;;;;;;;;;;;4968265;28;19922;-67
2023/11/28 00:49:01;;;;;;;;;;;;;;;;;;4953748;28;19922;-67
2023/11/28 00:51:26;;;;;;;;;;;;;;;;;;4971002;28;20004;-67
2023/11/28 00:53:52;;;;;;;;;;;;;;;;;;4955890;28;19956;-67
2023/11/28 00:56:17;;;;;;;;;;;;;;;;;;4969331;28;20055;-67
2023/11/28 00:58:43;;;;;;;;;;;;;;;;;;4970878;28;19933;-67
2023/11/28 01:01:11;;;;;;;;;;;;;;;;;;4970123;28;19921;-67
2023/11/28 01:03:36;;;;;;;;;;;;;;;;;;4954052;28;19932;-67
2023/11/28 01:06:02;;;;;;;;;;;;;;;;;;4970949;28;19920;-68
2023/11/28 01:08:27;;;;;;;;;;;;;;;;;;4953974;28;20276;-65
2023/11/28 01:10:52;;;;;;;;;;;;;;;;;;4956830;28;19924;-67
2023/11/28 01:13:21;;;;;;;;;;;;;;;;;;4954462;28;20565;-66
2023/11/28 01:15:46;;;;;;;;;;;;;;;;;;4956302;28;19926;-66
2023/11/28 01:18:11;;;;;;;;;;;;;;;;;;4968960;28;20176;-66
2023/11/28 01:20:39;;;;;;;;;;;;;;;;;;4955189;28;19925;-66
2023/11/28 01:23:05;;;;;;;;;;;;;;;;;;4950804;28;19918;-65
2023/11/28 01:25:33;;;;;;;;;;;;;;;;;;4952006;28;19922;-66
2023/11/28 01:27:58;;;;;;;;;;;;;;;;;;4970314;28;19929;-67
2023/11/28 01:30:24;;;;;;;;;;;;;;;;;;4970450;28;20052;-67
2023/11/28 01:32:50;;;;;;;;;;;;;;;;;;4968735;28;20333;-66
2023/11/28 01:35:15;;;;;;;;;;;;;;;;;;4972127;28;19977;-67
2023/11/28 01:37:43;;;;;;;;;;;;;;;;;;4953357;28;19922;-66
2023/11/28 01:40:09;;;;;;;;;;;;;;;;;;4971415;28;20021;-66
2023/11/28 01:42:35;;;;;;;;;;;;;;;;;;4970181;28;20768;-67
2023/11/28 01:45:01;;;;;;;;;;;;;;;;;;4954775;28;20025;-66
2023/11/28 01:47:26;;;;;;;;;;;;;;;;;;4967528;28;19984;-65
2023/11/28 01:49:51;;;;;;;;;;;;;;;;;;4952660;28;20440;-66
2023/11/28 01:52:17;;;;;;;;;;;;;;;;;;4971354;28;19914;-65
2023/11/28 01:54:42;;;;;;;;;;;;;;;;;;4969872;28;19922;-65
2023/11/28 01:57:10;;;;;;;;;;;;;;;;;;4969610;28;19948;-66
2023/11/28 01:59:35;;;;;;;;;;;;;;;;;;4969755;28;20003;-66
2023/11/28 02:02:01;;;;;;;;;;;;;;;;;;4969463;28;19921;-66
2023/11/28 02:04:32;;;;;;;;;;;;;;;;;;4970460;28;19932;-66
2023/11/28 02:06:58;;;;;;;;;;;;;;;;;;4969597;28;19933;-66
2023/11/28 02:09:25;;;;;;;;;;;;;;;;;;4970937;28;19967;-66
2023/11/28 02:11:50;;;;;;;;;;;;;;;;;;4967980;28;19926;-66
2023/11/28 02:14:17;;;;;;;;;;;;;;;;;;4968776;28;20494;-66
2023/11/28 02:16:44;;;;;;;;;;;;;;;;;;4968798;28;19924;-66
2023/11/28 02:19:10;;;;;;;;;;;;;;;;;;4971696;28;19936;-65
2023/11/28 02:21:35;;;;;;;;;;;;;;;;;;4969126;28;19926;-67
2023/11/28 02:27:17;;;;;;;;;;;;;;;;;;4970438;28;19968;-66
2023/11/28 02:29:46;;;;;;;;;;;;;;;;;;4969152;28;20266;-66
2023/11/28 02:32:13;;;;;;;;;;;;;;;;;;4969132;28;19924;-65
2023/11/28 02:34:41;;;;;;;;;;;;;;;;;;4948440;28;19922;-66
2023/11/28 02:37:07;;;;;;;;;;;;;;;;;;4971733;28;19925;-66
2023/11/28 02:39:32;;;;;;;;;;;;;;;;;;4968822;28;19918;-66
2023/11/28 02:41:57;;;;;;;;;;;;;;;;;;4970373;28;20021;-65
2023/11/28 02:44:23;;;;;;;;;;;;;;;;;;4953917;28;20004;-65
2023/11/28 02:46:50;;;;;;;;;;;;;;;;;;4953526;28;19972;-66
2023/11/28 02:49:16;;;;;;;;;;;;;;;;;;4969718;28;19924;-65
2023/11/28 02:51:41;;;;;;;;;;;;;;;;;;4948321;28;19922;-65
2023/11/28 02:54:09;;;;;;;;;;;;;;;;;;4970876;28;21452;-65
2023/11/28 02:56:34;;;;;;;;;;;;;;;;;;4951033;28;19922;-65
2023/11/28 02:59:01;;;;;;;;;;;;;;;;;;4952461;28;20772;-65
2023/11/28 03:01:27;;;;;;;;;;;;;;;;;;4947484;28;20233;-66
2023/11/28 03:03:52;;;;;;;;;;;;;;;;;;4964250;28;19922;-66
2023/11/28 03:06:23;;;;;;;;;;;;;;;;;;4950437;28;19997;-66
2023/11/28 03:08:48;;;;;;;;;;;;;;;;;;4965634;28;19922;-66
2023/11/28 03:11:14;;;;;;;;;;;;;;;;;;4950179;28;20472;-66
2023/11/28 03:13:39;;;;;;;;;;;;;;;;;;4950307;28;19929;-66
2023/11/28 03:16:05;;;;;;;;;;;;;;;;;;4949989;28;20360;-66
2023/11/28 03:18:33;;;;;;;;;;;;;;;;;;4946323;28;19918;-66
2023/11/28 03:20:58;;;;;;;;;;;;;;;;;;4951851;28;19948;-66
2023/11/28 03:23:24;;;;;;;;;;;;;;;;;;4963613;28;21081;-66
2023/11/28 03:25:49;;;;;;;;;;;;;;;;;;4947789;28;19965;-66
2023/11/28 03:28:17;;;;;;;;;;;;;;;;;;4952975;28;20335;-66
2023/11/28 03:30:45;;;;;;;;;;;;;;;;;;4953049;28;20206;-65
2023/11/28 03:33:10;;;;;;;;;;;;;;;;;;4954035;28;19940;-66
2023/11/28 03:35:36;;;;;;;;;;;;;;;;;;4950090;28;19922;-66
2023/11/28 03:38:04;;;;;;;;;;;;;;;;;;4953571;28;19922;-66
2023/11/28 03:40:29;;;;;;;;;;;;;;;;;;4953766;28;20502;-66
2023/11/28 03:42:54;;;;;;;;;;;;;;;;;;4968388;28;19933;-66
2023/11/28 03:45:20;;;;;;;;;;;;;;;;;;4951531;28;19918;-65
2023/11/28 03:47:46;;;;;;;;;;;;;;;;;;4949952;28;19919;-66
2023/11/28 03:50:12;;;;;;;;;;;;;;;;;;4954051;28;20001;-66
2023/11/28 03:52:43;;;;;;;;;;;;;;;;;;4966324;28;19968;-66
2023/11/28 03:55:09;;;;;;;;;;;;;;;;;;4953754;28;19918;-66
2023/11/28 03:57:35;;;;;;;;;;;;;;;;;;4949810;28;20013;-67
2023/11/28 04:00:00;;;;;;;;;;;;;;;;;;4951865;28;20182;-67
2023/11/28 04:02:26;;;;;;;;;;;;;;;;;;4952049;28;19918;-67
2023/11/28 04:04:51;;;;;;;;;;;;;;;;;;4952632;28;19968;-68
2023/11/28 04:07:17;;;;;;;;;;;;;;;;;;4952013;28;19925;-66
2023/11/28 04:09:43;;;;;;;;;;;;;;;;;;4953961;28;19929;-67
2023/11/28 04:12:08;;;;;;;;;;;;;;;;;;4952230;28;19925;-66
2023/11/28 04:14:36;;;;;;;;;;;;;;;;;;4950798;28;19922;-68
2023/11/28 04:17:04;;;;;;;;;;;;;;;;;;4953039;28;19941;-67
2023/11/28 04:19:29;;;;;;;;;;;;;;;;;;4952278;28;19922;-68
2023/11/28 04:21:58;;;;;;;;;;;;;;;;;;4951111;28;19929;-67
2023/11/28 04:24:23;;;;;;;;;;;;;;;;;;4952740;28;19918;-68
2023/11/28 04:26:48;;;;;;;;;;;;;;;;;;4952811;28;20342;-68
2023/11/28 04:29:14;;;;;;;;;;;;;;;;;;4968867;28;19980;-67
2023/11/28 04:31:42;;;;;;;;;;;;;;;;;;4953862;28;20275;-68
2023/11/28 04:34:08;;;;;;;;;;;;;;;;;;4952498;28;19953;-68
2023/11/28 04:36:34;;;;;;;;;;;;;;;;;;4947108;28;20381;-68
2023/11/28 04:38:59;;;;;;;;;;;;;;;;;;4951270;28;19965;-67
2023/11/28 04:41:24;;;;;;;;;;;;;;;;;;4945307;28;19918;-68
2023/11/28 04:43:50;;;;;;;;;;;;;;;;;;4953301;28;19968;-68
2023/11/28 04:46:15;;;;;;;;;;;;;;;;;;4951880;28;19926;-67
2023/11/28 04:48:41;;;;;;;;;;;;;;;;;;4950974;28;20411;-67
2023/11/28 04:51:06;;;;;;;;;;;;;;;;;;4951269;28;19929;-67
2023/11/28 04:53:31;;;;;;;;;;;;;;;;;;4952306;28;20045;-67
2023/11/28 04:55:57;;;;;;;;;;;;;;;;;;4966820;28;19996;-68
2023/11/28 04:58:23;;;;;;;;;;;;;;;;;;4967814;28;19930;-68
2023/11/28 05:00:48;;;;;;;;;;;;;;;;;;4966964;28;20388;-68
2023/11/28 05:03:13;;;;;;;;;;;;;;;;;;4950091;28;19972;-68
2023/11/28 05:05:39;;;;;;;;;;;;;;;;;;4953206;28;19926;-68
2023/11/28 05:08:05;;;;;;;;;;;;;;;;;;4967981;28;20370;-68
2023/11/28 05:10:30;;;;;;;;;;;;;;;;;;4951295;28;19918;-68
2023/11/28 05:12:58;;;;;;;;;;;;;;;;;;4948930;28;19976;-68
2023/11/28 05:15:42;;;;;;;;;;;;;;;;;;4953444;28;19922;-68
2023/11/28 05:21:23;;;;;;;;;;;;;;;;;;4951310;28;19972;-68
2023/11/28 05:23:49;;;;;;;;;;;;;;;;;;4951640;28;19922;-68
2023/11/28 05:26:15;;;;;;;;;;;;;;;;;;4950625;28;19918;-67
2023/11/28 05:28:40;;;;;;;;;;;;;;;;;;4951639;28;19926;-68
2023/11/28 05:31:05;;;;;;;;;;;;;;;;;;4950350;28;19976;-67
2023/11/28 05:33:31;;;;;;;;;;;;;;;;;;4950256;28;20402;-68
2023/11/28 05:35:57;;;;;;;;;;;;;;;;;;4950693;28;19924;-68
2023/11/28 05:38:23;;;;;;;;;;;;;;;;;;4951592;28;19918;-68
2023/11/28 05:40:48;;;;;;;;;;;;;;;;;;4951257;28;20569;-68
2023/11/28 05:43:16;;;;;;;;;;;;;;;;;;4951441;28;20358;-68
2023/11/28 05:45:41;;;;;;;;;;;;;;;;;;4966749;28;19948;-68
2023/11/28 05:48:07;;;;;;;;;;;;;;;;;;4948422;28;19967;-68
2023/11/28 05:50:32;;;;;;;;;;;;;;;;;;4952347;28;19918;-68
2023/11/28 05:52:58;;;;;;;;;;;;;;;;;;4962972;28;19922;-68
2023/11/28 05:55:23;;;;;;;;;;;;;;;;;;4947935;28;20013;-68
2023/11/28 05:57:48;;;;;;;;;;;;;;;;;;4948540;28;20254;-68
2023/11/28 06:00:14;;;;;;;;;;;;;;;;;;4950091;28;19926;-66
2023/11/28 06:02:39;;;;;;;;;;;;;;;;;;4951394;28;19926;-67
2023/11/28 06:05:05;;;;;;;;;;;;;;;;;;4952088;28;20086;-67
2023/11/28 06:07:30;;;;;;;;;;;;;;;;;;4965770;28;19922;-67
2023/11/28 06:09:56;;;;;;;;;;;;;;;;;;4948345;28;20400;-67
2023/11/28 06:12:21;;;;;;;;;;;;;;;;;;4951427;28;19921;-68
2023/11/28 06:14:46;;;;;;;;;;;;;;;;;;4948774;28;19930;-68
2023/11/28 06:17:12;;;;;;;;;;;;;;;;;;4963339;28;19929;-68
2023/11/28 06:19:38;;;;;;;;;;;;;;;;;;4950426;28;19937;-67
2023/11/28 06:22:03;;;;;;;;;;;;;;;;;;4965544;28;20026;-68
2023/11/28 06:24:29;;;;;;;;;;;;;;;;;;4950608;28;20437;-68
2023/11/28 06:26:54;;;;;;;;;;;;;;;;;;4951191;28;19981;-68
2023/11/28 06:29:19;;;;;;;;;;;;;;;;;;4966896;28;19918;-68
2023/11/28 06:31:45;;;;;;;;;;;;;;;;;;4965639;28;20010;-67
2023/11/28 06:34:13;;;;;;;;;;;;;;;;;;4952184;28;20350;-69
2023/11/28 06:36:38;;;;;;;;;;;;;;;;;;4948935;28;19933;-69
2023/11/28 06:39:04;;;;;;;;;;;;;;;;;;4950656;28;20637;-67
2023/11/28 06:41:30;;;;;;;;;;;;;;;;;;4950318;28;19922;-67
2023/11/28 06:43:55;;;;;;;;;;;;;;;;;;4949578;28;19933;-68
2023/11/28 06:46:21;;;;;;;;;;;;;;;;;;4946014;28;19927;-68
2023/11/28 06:48:53;;;;;;;;;;;;;;;;;;4965425;28;19918;-67
2023/11/28 06:51:18;;;;;;;;;;;;;;;;;;4954181;28;19918;-67
2023/11/28 06:53:44;;;;;;;;;;;;;;;;;;4949335;28;19925;-67
2023/11/28 06:56:09;;;;;;;;;;;;;;;;;;4949017;28;20452;-67
2023/11/28 06:58:35;;;;;;;;;;;;;;;;;;4949624;28;20382;-67
2023/11/28 07:01:00;;;;;;;;;;;;;;;;;;4954498;28;20378;-67
2023/11/28 07:03:30;;;;;;;;;;;;;;;;;;4952638;28;21554;-68
2023/11/28 07:05:56;;;;;;;;;;;;;;;;;;4969435;28;19918;-68
2023/11/28 07:08:21;;;;;;;;;;;;;;;;;;4953907;28;20520;-68
2023/11/28 07:10:47;;;;;;;;;;;;;;;;;;4957453;28;19918;-68
2023/11/28 07:13:12;;;;;;;;;;;;;;;;;;4969417;28;20382;-68
2023/11/28 07:15:37;;;;;;;;;;;;;;;;;;4970624;28;20463;-67
2023/11/28 07:21:20;;;;;;;;;;;;;;;;;;4954454;28;19933;-68
2023/11/28 07:23:45;;;;;;;;;;;;;;;;;;4967386;28;19918;-68
2023/11/28 07:26:13;;;;;;;;;;;;;;;;;;4953449;28;21442;-68
2023/11/28 07:28:40;;;;;;;;;;;;;;;;;;4955372;28;19945;-69
2023/11/28 07:31:06;;;;;;;;;;;;;;;;;;4969728;28;20330;-68
2023/11/28 07:33:31;;;;;;;;;;;;;;;;;;4951297;28;19925;-68
2023/11/28 07:35:56;;;;;;;;;;;;;;;;;;4949129;28;19918;-70
2023/11/28 07:38:24;;;;;;;;;;;;;;;;;;4954664;28;20730;-69
2023/11/28 07:40:50;;;;;;;;;;;;;;;;;;4953229;28;19932;-69
2023/11/28 07:43:15;;;;;;;;;;;;;;;;;;4950922;28;19918;-69
2023/11/28 07:45:41;;;;;;;;;;;;;;;;;;4952421;28;19923;-69
2023/11/28 07:48:06;;;;;;;;;;;;;;;;;;4949405;28;20016;-69
2023/11/28 07:50:32;;;;;;;;;;;;;;;;;;4951301;28;20298;-69
2023/11/28 07:52:57;;;;;;;;;;;;;;;;;;4950642;28;19918;-68
2023/11/28 07:55:23;;;;;;;;;;;;;;;;;;4950085;28;19919;-69
2023/11/28 07:57:48;;;;;;;;;;;;;;;;;;4957031;28;19929;-69
2023/11/28 08:00:14;;;;;;;;;;;;;;;;;;4973134;28;19926;-69
2023/11/28 08:02:39;;;;;;;;;;;;;;;;;;4954026;28;19925;-69
2023/11/28 08:05:04;;;;;;;;;;;;;;;;;;4970911;28;19924;-69
2023/11/28 08:07:32;;;;;;;;;;;;;;;;;;4958351;28;19923;-69
2023/11/28 08:10:00;;;;;;;;;;;;;;;;;;4956178;28;20095;-70
2023/11/28 08:12:25;;;;;;;;;;;;;;;;;;4968097;28;19928;-69
2023/11/28 08:14:51;;;;;;;;;;;;;;;;;;4950947;28;19918;-69
2023/11/28 08:17:16;;;;;;;;;;;;;;;;;;4955309;28;19917;-69
2023/11/28 08:19:42;;;;;;;;;;;;;;;;;;4956644;28;20173;-69
2023/11/28 08:22:07;;;;;;;;;;;;;;;;;;4955193;28;20400;-69
2023/11/28 08:24:32;;;;;;;;;;;;;;;;;;4957612;28;19932;-69
2023/11/28 08:26:58;;;;;;;;;;;;;;;;;;4970986;28;19918;-69
2023/11/28 08:29:23;;;;;;;;;;;;;;;;;;4958157;28;19999;-69
2023/11/28 08:31:49;;;;;;;;;;;;;;;;;;4954450;28;19924;-69
2023/11/28 08:34:15;;;;;;;;;;;;;;;;;;4955890;28;20641;-69
2023/11/28 08:36:41;;;;;;;;;;;;;;;;;;4969194;28;19918;-68
2023/11/28 08:39:07;;;;;;;;;;;;;;;;;;4969814;28;19955;-68
2023/11/28 08:41:33;;;;;;;;;;;;;;;;;;4953320;28;19918;-68
2023/11/28 08:43:59;;;;;;;;;;;;;;;;;;4954172;28;20037;-68
2023/11/28 08:46:24;;;;;;;;;;;;;;;;;;4957847;28;20285;-68
2023/11/28 08:48:52;;;;;;;;;;;;;;;;;;4971873;28;19968;-68
2023/11/28 08:51:17;;;;;;;;;;;;;;;;;;4954844;28;19917;-68
2023/11/28 08:53:43;;;;;;;;;;;;;;;;;;4956560;28;19910;-68
2023/11/28 08:56:08;;;;;;;;;;;;;;;;;;4970438;28;19922;-68
2023/11/28 08:58:34;;;;;;;;;;;;;;;;;;4969874;28;20356;-69
2023/11/28 09:01:02;;;;;;;;;;;;;;;;;;4971592;28;19926;-69
2023/11/28 09:03:28;;;;;;;;;;;;;;;;;;4971762;28;19952;-69
2023/11/28 09:05:53;;;;;;;;;;;;;;;;;;4958216;28;20413;-69
2023/11/28 09:08:19;;;;;;;;;;;;;;;;;;4973293;28;19922;-69
2023/11/28 09:10:44;;;;;;;;;;;;;;;;;;4971319;28;19929;-69
2023/11/28 09:13:09;;;;;;;;;;;;;;;;;;4969622;28;20381;-69
2023/11/28 09:15:35;;;;;;;;;;;;;;;;;;4958447;28;20009;-69
2023/11/28 09:18:00;;;;;;;;;;;;;;;;;;4971224;28;20219;-69
2023/11/28 09:20:32;;;;;;;;;;;;;;;;;;4956286;28;19926;-69
2023/11/28 09:22:57;;;;;;;;;;;;;;;;;;4970358;28;20005;-69
2023/11/28 09:25:23;;;;;;;;;;;;;;;;;;4952750;28;19928;-69
2023/11/28 09:27:49;;;;;;;;;;;;;;;;;;4953984;28;19925;-69
2023/11/28 09:30:14;;;;;;;;;;;;;;;;;;4954929;28;19933;-67
2023/11/28 09:32:40;;;;;;;;;;;;;;;;;;4966565;28;20027;-67
2023/11/28 09:35:06;;;;;;;;;;;;;;;;;;4973040;28;20391;-68
2023/11/28 09:37:32;;;;;;;;;;;;;;;;;;4970483;28;19918;-68
2023/11/28 09:39:57;;;;;;;;;;;;;;;;;;4955460;28;19953;-68
2023/11/28 09:42:23;;;;;;;;;;;;;;;;;;4970414;28;20440;-68
2023/11/28 09:44:48;;;;;;;;;;;;;;;;;;4972729;28;20388;-68
2023/11/28 09:47:14;;;;;;;;;;;;;;;;;;4953802;28;20484;-68
2023/11/28 09:49:39;;;;;;;;;;;;;;;;;;4954949;28;19921;-70
2023/11/28 09:52:05;;;;;;;;;;;;;;;;;;4954119;28;20349;-67
2023/11/28 09:57:21;;;;;;;;;;;;;;;;;;4970487;28;19922;-68
2023/11/28 09:59:46;;;;;;;;;;;;;;;;;;4950781;28;20519;-68
2023/11/28 10:02:12;;;;;;;;;;;;;;;;;;4954241;28;19980;-68
2023/11/28 10:04:38;;;;;;;;;;;;;;;;;;4968299;28;20004;-69
2023/11/28 10:07:04;;;;;;;;;;;;;;;;;;4972145;28;19949;-68
2023/11/28 10:12:46;;;;;;;;;;;;;;;;;;4968221;28;19921;-69
2023/11/28 10:15:11;;;;;;;;;;;;;;;;;;4952083;28;19922;-69
2023/11/28 10:17:37;;;;;;;;;;;;;;;;;;4950522;28;19930;-69
2023/11/28 10:20:05;;;;;;;;;;;;;;;;;;4952883;28;19922;-69
2023/11/28 10:22:33;;;;;;;;;;;;;;;;;;4949517;28;19918;-69
2023/11/28 10:24:59;;;;;;;;;;;;;;;;;;4968093;28;19925;-70
2023/11/28 10:27:24;;;;;;;;;;;;;;;;;;4967417;28;19948;-71
2023/11/28 10:29:50;;;;;;;;;;;;;;;;;;4972268;28;19925;-70
2023/11/28 10:32:15;;;;;;;;;;;;;;;;;;4967736;28;19918;-70
2023/11/28 10:37:56;;;;;;;;;;;;;;;;;;4970951;28;20033;-70
2023/11/28 10:40:25;;;;;;;;;;;;;;;;;;4954515;28;19961;-70
2023/11/28 10:46:07;;;;;;;;;;;;;;;;;;4971264;28;19984;-70
2023/11/28 10:48:33;;;;;;;;;;;;;;;;;;4969077;28;19922;-70
2023/11/28 10:51:08;;;;;;;;;;;;;;;;;;4968358;28;20024;-70
2023/11/28 10:53:36;;;;;;;;;;;;;;;;;;4969600;28;20333;-71
2023/11/28 10:56:01;;;;;;;;;;;;;;;;;;4967652;28;19922;-70
2023/11/28 10:58:27;;;;;;;;;;;;;;;;;;4965370;28;19930;-70
2023/11/28 11:00:55;;;;;;;;;;;;;;;;;;4954201;28;20460;-70
2023/11/28 11:03:21;;;;;;;;;;;;;;;;;;4952636;28;19928;-72
2023/11/28 11:05:46;;;;;;;;;;;;;;;;;;4967456;28;19917;-72
2023/11/28 11:08:11;;;;;;;;;;;;;;;;;;4954821;28;19917;-70
2023/11/28 11:10:37;;;;;;;;;;;;;;;;;;4968657;28;19922;-72
2023/11/28 11:13:03;;;;;;;;;;;;;;;;;;4952955;28;19957;-70
2023/11/28 11:15:28;;;;;;;;;;;;;;;;;;4951992;28;19970;-70
2023/11/28 11:17:54;;;;;;;;;;;;;;;;;;4971200;28;20009;-71
2023/11/28 11:20:19;;;;;;;;;;;;;;;;;;4954310;28;19933;-71
2023/11/28 11:22:45;;;;;;;;;;;;;;;;;;4968659;28;20328;-71
2023/11/28 11:25:10;;;;;;;;;;;;;;;;;;4953407;28;19918;-72
2023/11/28 11:27:35;;;;;;;;;;;;;;;;;;4952382;28;20021;-71
2023/11/28 11:30:01;;;;;;;;;;;;;;;;;;4968907;28;19922;-71
2023/11/28 11:32:26;;;;;;;;;;;;;;;;;;4950375;28;20281;-71
2023/11/28 11:34:52;;;;;;;;;;;;;;;;;;4953614;28;20064;-70
2023/11/28 11:37:17;;;;;;;;;;;;;;;;;;4970547;28;20000;-70
2023/11/28 11:39:43;;;;;;;;;;;;;;;;;;4970470;28;19932;-71
2023/11/28 11:42:09;;;;;;;;;;;;;;;;;;4970253;28;19922;-71
2023/11/28 11:44:34;;;;;;;;;;;;;;;;;;4969747;28;19928;-71
2023/11/28 11:47:00;;;;;;;;;;;;;;;;;;4955972;28;19921;-71
2023/11/28 11:49:25;;;;;;;;;;;;;;;;;;4957664;28;20515;-70
2023/11/28 11:51:53;;;;;;;;;;;;;;;;;;4973822;28;20020;-70
2023/11/28 11:54:19;;;;;;;;;;;;;;;;;;4960374;28;19922;-70
2023/11/28 11:56:44;;;;;;;;;;;;;;;;;;4953913;28;19928;-71
2023/11/28 11:59:11;;;;;;;;;;;;;;;;;;4973115;28;20582;-70
2023/11/28 12:01:36;;;;;;;;;;;;;;;;;;4956289;28;19918;-70
2023/11/28 12:04:03;;;;;;;;;;;;;;;;;;4955503;28;19922;-71
2023/11/28 12:06:28;;;;;;;;;;;;;;;;;;4972177;28;19925;-70
2023/11/28 12:08:53;;;;;;;;;;;;;;;;;;4952047;28;19957;-71
2023/11/28 12:11:19;;;;;;;;;;;;;;;;;;4957165;28;19957;-70
2023/11/28 12:13:45;;;;;;;;;;;;;;;;;;4972920;28;19933;-70
2023/11/28 12:16:13;;;;;;;;;;;;;;;;;;4970828;28;20024;-71
2023/11/28 12:18:39;;;;;;;;;;;;;;;;;;4971832;28;20035;-70
2023/11/28 12:21:04;;;;;;;;;;;;;;;;;;4971682;28;20393;-70
2023/11/28 12:23:31;;;;;;;;;;;;;;;;;;4957172;28;20393;-71
2023/11/28 12:25:57;;;;;;;;;;;;;;;;;;4972647;28;20301;-71
2023/11/28 12:28:22;;;;;;;;;;;;;;;;;;4973854;28;20041;-70
2023/11/28 12:30:48;;;;;;;;;;;;;;;;;;4973744;28;19995;-71
2023/11/28 12:33:14;;;;;;;;;;;;;;;;;;4968501;28;20599;-71
2023/11/28 12:35:39;;;;;;;;;;;;;;;;;;4956200;28;19933;-71
2023/11/28 12:38:04;;;;;;;;;;;;;;;;;;4971720;28;19918;-72
2023/11/28 12:40:30;;;;;;;;;;;;;;;;;;4972682;28;19933;-72
2023/11/28 12:42:58;;;;;;;;;;;;;;;;;;4971292;28;19976;-71
2023/11/28 12:45:25;;;;;;;;;;;;;;;;;;4968019;28;19922;-71
2023/11/28 12:51:07;;;;;;;;;;;;;;;;;;4973413;28;20278;-71
2023/11/28 12:53:34;;;;;;;;;;;;;;;;;;4956706;28;19953;-71
2023/11/28 12:56:00;;;;;;;;;;;;;;;;;;4957682;28;19929;-70
2023/11/28 12:58:26;;;;;;;;;;;;;;;;;;4954363;28;19926;-71
2023/11/28 13:00:51;;;;;;;;;;;;;;;;;;4971072;28;19925;-70
2023/11/28 13:03:16;;;;;;;;;;;;;;;;;;4971924;28;19928;-69
2023/11/28 13:05:42;;;;;;;;;;;;;;;;;;4952678;28;19941;-70
2023/11/28 13:08:07;;;;;;;;;;;;;;;;;;4971197;28;20494;-70
2023/11/28 13:10:33;;;;;;;;;;;;;;;;;;4953313;28;19922;-70
2023/11/28 13:12:58;;;;;;;;;;;;;;;;;;4968928;28;19977;-70
2023/11/28 13:15:23;;;;;;;;;;;;;;;;;;4953877;28;19926;-70
2023/11/28 13:17:49;;;;;;;;;;;;;;;;;;4968130;28;19922;-71
2023/11/28 13:20:20;;;;;;;;;;;;;;;;;;4972073;28;19930;-71
2023/11/28 13:22:45;;;;;;;;;;;;;;;;;;4955680;28;20025;-71
2023/11/28 13:25:12;;;;;;;;;;;;;;;;;;4953314;28;20245;-70
2023/11/28 13:27:38;;;;;;;;;;;;;;;;;;4970219;28;20321;-71
2023/11/28 13:30:05;;;;;;;;;;;;;;;;;;4970329;28;19918;-71
2023/11/28 13:32:31;;;;;;;;;;;;;;;;;;4971346;28;19930;-69
2023/11/28 13:34:57;;;;;;;;;;;;;;;;;;4953875;28;20299;-71
2023/11/28 13:37:23;;;;;;;;;;;;;;;;;;4968293;28;19922;-68
2023/11/28 13:39:48;;;;;;;;;;;;;;;;;;4944020;28;20839;-68
2023/11/28 13:42:14;;;;;;;;;;;;;;;;;;4949774;28;19996;-69
2023/11/28 13:44:39;;;;;;;;;;;;;;;;;;4969637;28;19921;-69
2023/11/28 13:47:04;;;;;;;;;;;;;;;;;;4950991;28;20032;-69
2023/11/28 13:49:30;;;;;;;;;;;;;;;;;;4954159;28;19922;-69
2023/11/28 13:51:55;;;;;;;;;;;;;;;;;;4949364;28;19929;-69
2023/11/28 13:54:23;;;;;;;;;;;;;;;;;;4969101;28;19918;-70
2023/11/28 13:56:48;;;;;;;;;;;;;;;;;;4964436;28;20664;-70
2023/11/28 13:59:18;;;;;;;;;;;;;;;;;;4949578;28;20413;-70
2023/11/28 14:01:43;;;;;;;;;;;;;;;;;;4969162;28;19917;-70
2023/11/28 14:04:09;;;;;;;;;;;;;;;;;;4964981;28;19929;-70
2023/11/28 14:06:35;;;;;;;;;;;;;;;;;;4961427;28;19996;-71
2023/11/28 14:09:00;;;;;;;;;;;;;;;;;;4953829;28;20049;-71
2023/11/28 14:11:38;;;;;;;;;;;;;;;;;;4964242;28;20320;-71
2023/11/28 14:14:04;;;;;;;;;;;;;;;;;;4969523;28;19926;-70
2023/11/28 14:16:29;;;;;;;;;;;;;;;;;;4948603;28;20310;-71
2023/11/28 14:19:10;;;;;;;;;;;;;;;;;;4966205;28;20301;-71
2023/11/28 14:21:36;;;;;;;;;;;;;;;;;;4962135;28;19930;-71
2023/11/28 14:24:01;;;;;;;;;;;;;;;;;;4967220;28;19922;-71
2023/11/28 14:26:26;;;;;;;;;;;;;;;;;;4950923;28;19972;-72
2023/11/28 14:28:52;;;;;;;;;;;;;;;;;;4968173;28;19996;-71
2023/11/28 14:31:19;;;;;;;;;;;;;;;;;;4969306;28;20324;-70
2023/11/28 14:33:44;;;;;;;;;;;;;;;;;;4953067;28;19921;-71
2023/11/28 14:36:10;;;;;;;;;;;;;;;;;;4971308;28;19922;-71
2023/11/28 14:38:35;;;;;;;;;;;;;;;;;;4947428;28;19968;-71
2023/11/28 14:41:01;;;;;;;;;;;;;;;;;;4969186;28;19925;-70
2023/11/28 14:43:26;;;;;;;;;;;;;;;;;;4951815;28;20016;-71
2023/11/28 14:45:52;;;;;;;;;;;;;;;;;;4969509;28;19922;-71
2023/11/28 14:48:17;;;;;;;;;;;;;;;;;;4965960;28;19979;-70
2023/11/28 14:50:42;;;;;;;;;;;;;;;;;;4949469;28;20377;-71
2023/11/28 14:53:08;;;;;;;;;;;;;;;;;;4951390;28;19924;-70
2023/11/28 14:55:33;;;;;;;;;;;;;;;;;;4968733;28;20389;-71
2023/11/28 14:57:58;;;;;;;;;;;;;;;;;;4947273;28;19922;-70
2023/11/28 15:00:25;;;;;;;;;;;;;;;;;;4964272;28;20294;-70
2023/11/28 15:02:53;;;;;;;;;;;;;;;;;;4948119;28;19945;-70
2023/11/28 15:05:20;;;;;;;;;;;;;;;;;;4948786;28;19922;-71
2023/11/28 15:07:46;;;;;;;;;;;;;;;;;;4948693;28;19926;-70
2023/11/28 15:10:12;;;;;;;;;;;;;;;;;;4948901;28;19926;-70
2023/11/28 15:12:38;;;;;;;;;;;;;;;;;;4943363;28;20235;-70
2023/11/28 15:15:05;;;;;;;;;;;;;;;;;;4957947;28;20030;-70
2023/11/28 15:17:30;;;;;;;;;;;;;;;;;;4946828;28;20008;-71
2023/11/28 15:19:56;;;;;;;;;;;;;;;;;;4964042;28;20413;-69
2023/11/28 15:22:24;;;;;;;;;;;;;;;;;;4966160;28;19917;-70
2023/11/28 15:24:51;;;;;;;;;;;;;;;;;;4951849;28;19970;-70
2023/11/28 15:27:19;;;;;;;;;;;;;;;;;;4947096;28;20220;-70
2023/11/28 15:29:45;;;;;;;;;;;;;;;;;;4954822;28;19918;-70
2023/11/28 15:32:10;;;;;;;;;;;;;;;;;;4948409;28;20373;-70
2023/11/28 15:34:36;;;;;;;;;;;;;;;;;;4967773;28;19918;-70
2023/11/28 15:37:01;;;;;;;;;;;;;;;;;;4955176;28;20547;-70
2023/11/28 15:39:26;;;;;;;;;;;;;;;;;;4953419;28;20412;-70
2023/11/28 15:41:52;;;;;;;;;;;;;;;;;;4950024;28;19918;-69
2023/11/28 15:44:20;;;;;;;;;;;;;;;;;;4951240;28;19922;-69
2023/11/28 15:46:46;;;;;;;;;;;;;;;;;;4945632;28;20259;-69
2023/11/28 15:49:11;;;;;;;;;;;;;;;;;;4952531;28;20437;-69
2023/11/28 15:51:40;;;;;;;;;;;;;;;;;;4952414;28;21427;-70
2023/11/28 15:54:05;;;;;;;;;;;;;;;;;;4967452;28;19922;-70
2023/11/28 15:56:31;;;;;;;;;;;;;;;;;;4951438;28;19929;-69
2023/11/28 15:58:56;;;;;;;;;;;;;;;;;;4952096;28;20246;-69
2023/11/28 16:01:24;;;;;;;;;;;;;;;;;;4947367;28;21077;-69
2023/11/28 16:03:51;;;;;;;;;;;;;;;;;;4950132;28;19929;-68
2023/11/28 16:06:16;;;;;;;;;;;;;;;;;;4952754;28;19929;-69
2023/11/28 16:08:41;;;;;;;;;;;;;;;;;;4966678;28;19944;-68
2023/11/28 16:11:07;;;;;;;;;;;;;;;;;;4949880;28;19964;-69
2023/11/28 16:13:34;;;;;;;;;;;;;;;;;;4952281;28;19922;-68
2023/11/28 16:16:00;;;;;;;;;;;;;;;;;;4949471;28;20032;-67
2023/11/28 16:18:27;;;;;;;;;;;;;;;;;;4965273;28;20266;-69
2023/11/28 16:20:55;;;;;;;;;;;;;;;;;;4952409;28;20210;-68
2023/11/28 16:23:24;;;;;;;;;;;;;;;;;;4953098;28;22036;-68
2023/11/28 16:25:54;;;;;;;;;;;;;;;;;;4967249;28;19957;-68
2023/11/28 16:28:19;;;;;;;;;;;;;;;;;;4948474;28;19949;-68
2023/11/28 16:30:44;;;;;;;;;;;;;;;;;;4951386;28;20494;-68
2023/11/28 16:33:10;;;;;;;;;;;;;;;;;;4950013;28;20089;-68
2023/11/28 16:35:35;;;;;;;;;;;;;;;;;;4949731;28;20418;-69
2023/11/28 16:38:00;;;;;;;;;;;;;;;;;;4951948;28;19976;-66
2023/11/28 16:40:26;;;;;;;;;;;;;;;;;;4950298;28;20305;-68
2023/11/28 16:42:53;;;;;;;;;;;;;;;;;;4945546;28;19957;-68
2023/11/28 16:45:21;;;;;;;;;;;;;;;;;;4950910;28;19914;-68
2023/11/28 16:47:46;;;;;;;;;;;;;;;;;;4964084;28;20021;-69
2023/11/28 16:50:14;;;;;;;;;;;;;;;;;;4948107;28;19926;-68
2023/11/28 16:52:45;;;;;;;;;;;;;;;;;;4948522;28;19918;-69
2023/11/28 16:55:12;;;;;;;;;;;;;;;;;;4967659;28;19922;-67
2023/11/28 16:57:40;;;;;;;;;;;;;;;;;;4951304;28;19914;-68
2023/11/28 17:00:07;;;;;;;;;;;;;;;;;;4968517;28;19926;-68
2023/11/28 17:02:32;;;;;;;;;;;;;;;;;;4949190;28;20028;-68